Aérodrome :
LOGIN :

S'inscrire | Disclaimer

   EN    FR    IT 

 










Légende :    VFR   VFR Marginal   IFR   IFR Intensif   IFR Très Intensif
Visi : 
Plafond : 
>= 8 km
>= 3000ft
5 à 8 km
1000 à 3000 ft
1500m à 5 km
500 à 1000 ft
800 à 1500m
200 à 500 ft
< 800m
< 200 ft
Symboles :   Orages  Brouillard  Fortes neiges  Fortes précipitations  Vent > 20 kt
SIGMETs :   Divers  Orages  Givrage  Turbulence  Onde Orograph.  Cendres Volcan.







- Altitude de l'aérodrome : 1300 ft
- Code IATA : LIG
- Voir les cartes d'approche


LFBL - Limoges

DERNIER METAR :
  • 222000Z AUTO 29005KT CAVOK 19/10 Q1017 NOSIG

METARs EXPIRÉS :
  • 221930Z AUTO 24003KT CAVOK 20/09 Q1016 NOSIG
  • 221900Z AUTO 25003KT CAVOK 21/09 Q1016 NOSIG
  • 221830Z AUTO 19003KT CAVOK 21/09 Q1016 NOSIG
  • 221800Z AUTO 18004KT CAVOK 22/09 Q1015 NOSIG
  • 221730Z AUTO 20006KT CAVOK 23/09 Q1015 NOSIG

TAF TAF LFBL
Valide du 22 à 18h jusqu'au 23 à 18h UTC


221700Z 2218/2318 21009KT CAVOK
BECMG 2222/2224 SCT040CB
PROB40
TEMPO 2303/2310 30020G35KT 3000 TSRA BKN012 BKN020CB
BECMG 2310/2312 SCT020
ATIS : +33 5 55 48 40 37
Pas de NOTAMs connus pour ce terrain.
1 SIGMET publié pour la FIR Bordeaux (LFBB) :
 
Orages noyés dans la masse
LFBB SIGMET 1 VALID 221900/222100 LFPW
LFBB BORDEAUX FIR/UIR EMBD TS FCST WI N4245 E00000 - N4300 W00145 - N4430 W00145 - N4430 W00100 - N4345 E00100 - N4245 E00000 TOP FL350 STNR INTSF=



MET'MAP, la Météo Aéronautique d'un coup d'oeil ! - Copyright ORBIFLY Décembre 2007 - Disclaimer

ORBIFLY MET'MAP TEAM :

Programmation & Développement : Alexandra Zaïnal
Conception & Développement : Baudouin d'Aumeries
Co-Programmation & Développement : Marc-Olivier Méhu
Soutien technique & logistique : Manuel Goepfert

Contact : metmap@orbifly.com




SOURCES & CREDITS :

   NOAA